Yel'nya, Russia
Current Conditions -  °F | °C
As of 7:30 PM on Monday 26 Jan 2015 (Local Time) from UUBW Reporting Station
Clear Clear  
Wind Chill: -5°   Ceiling: Unl
Heat Index:   Visibility: 6mi
Dew Point:   Wind: 7mph
Humidity: 92%   Direction: 110°ESE
Pressure: 30.24"   Gusts: NA
Location:  55.52°N, 34.48°E
Report Text: UUBW 261630Z 11003MPS CAVOK M14/M15 Q1024 NOSIG RMK SC0.45
Loading
Personal Weather Stations






























Interactive Weather Map New forecast layout! Learn more

10-Day Weather Forecast

Advertisements
Track Severe Weather on mobile